• Join FlightAware (Why Join?)
  • Login
  • US Flag 
02:22AM EDT


 

Airport Tracker/Info


-or-


 

Live Flight TrackerFlight Track Log ✈ UCA3596 ✈ 14-Jan-2014 ✈ KIAD - KBGM

Flight Track Log - Related Links

Times and Time Zones

All times are in EST time to prevent confusion due to time zone crossing. See the UCA3596 flight status page for this flight to view local times or setup timezone preferences in your user account.

Time Position Orientation Groundspeed Altitude Reporting Facility
EST Latitude Longitude Course Direction KTS MPH feet Rate Location/Type
01:12PM 39.4267 -77.2517 19° North  Level Estimated
01:13PM 39.5065 -77.2168 19° North  Level Estimated
01:14PM 39.5593 -77.1936 19° North  Level Estimated
01:15PM 39.6121 -77.1704 19° North  Level Estimated
01:16PM 39.6648 -77.1471 19° North  Level Estimated
01:17PM 39.7176 -77.1238 19° North  Level Estimated
01:18PM 39.7704 -77.1005 19° North  Level Estimated
01:19PM 39.8232 -77.0772 19° North  Level Estimated
01:20PM 39.8759 -77.0538 19° North  Level Estimated
01:21PM 39.9287 -77.0304 19° North  Level Estimated
01:22PM 39.9814 -77.0069 19° North  Level Estimated
01:23PM 40.0342 -76.9834 19° North  Level Estimated
01:24PM 40.0869 -76.9599 19° North  Level Estimated
01:25PM 40.1396 -76.9363 19° North  Level Estimated
01:26PM 40.1924 -76.9127 19° North  Level Estimated
01:27PM 40.2451 -76.8891 19° North  Level Estimated
01:28PM 40.2978 -76.8654 19° North  Level Estimated
01:29PM 40.3506 -76.8417 19° North  Level Estimated
01:30PM 40.4033 -76.8179 19° North  Level Estimated
01:31PM 40.4560 -76.7941 19° North  Level Estimated
01:32PM 40.5087 -76.7703 19° North  Level Estimated
01:33PM 40.5614 -76.7464 19° North  Level Estimated
01:34PM 40.6141 -76.7225 19° North  Level Estimated
01:35PM 40.6668 -76.6986 19° North  Level Estimated
01:36PM 40.7194 -76.6746 19° North  Level Estimated
01:37PM 40.7721 -76.6506 19° North  Level Estimated
01:38PM 40.8248 -76.6265 19° North  Level Estimated
01:39PM 40.8774 -76.6024 19° North  Level Estimated
01:40PM 40.9301 -76.5783 19° North  Level Estimated
01:41PM 40.9828 -76.5541 19° North  Level Estimated
01:42PM 41.0354 -76.5299 19° North  Level Estimated
01:43PM 41.0881 -76.5057 19° North  Level Estimated
01:44PM 41.1407 -76.4814 19° North  Level Estimated
01:45PM 41.1934 -76.4570 19° North  Level Estimated
01:46PM 41.2460 -76.4327 19° North  Level Estimated
01:47PM 41.2986 -76.4083 19° North  Level Estimated
01:48PM 41.3512 -76.3838 19° North  Level Estimated
01:49PM 41.4039 -76.3594 19° North  Level Estimated
01:50PM 41.4565 -76.3348 19° North  Level Estimated
01:51PM 41.5091 -76.3103 19° North  Level Estimated
01:52PM 41.5617 -76.2857 19° North  Level Estimated
01:53PM 41.6143 -76.2610 19° North  Level Estimated
01:54PM 41.6669 -76.2363 19° North  Level Estimated
01:55PM 41.7194 -76.2116 19° North  Level Estimated
01:56PM 41.7720 -76.1868 19° North  Level Estimated
01:57PM 41.8246 -76.1620 19° North  Level Estimated
01:58PM 41.8772 -76.1372 19° North  Level Estimated
01:59PM 41.9297 -76.1123 19° North  Level Estimated
02:00PM 41.9823 -76.0874 19° North  Level Estimated
02:01PM 42.0348 -76.0624 19° North  Level Estimated
02:02PM 42.0874 -76.0374 19° North  Level Estimated
02:03PM 42.1399 -76.0123 19° North  Level Estimated
02:04PM 42.1925 -75.9873 19° North  Level Estimated
02:05PM 42.2084 -75.9796 20° North  Level Estimated
02:06PM 42.2084 -75.9796 35° Northeast  Level Estimated
02:07PM 42.2084 -75.9796 35° Northeast  Level Estimated
02:08PM 42.2084 -75.9796 35° Northeast  Level Estimated
02:09PM 42.2084 -75.9796 35° Northeast  Level Estimated
02:10PM 42.2084 -75.9796 35° Northeast  Level Estimated
02:11PM 42.2084 -75.9796 35° Northeast  Level Estimated
02:12PM 42.2084 -75.9796 35° Northeast  Level Estimated
02:13PM 42.2084 -75.9796 35° Northeast  Level Estimated
02:14PM 42.2084 -75.9796 35° Northeast  Level Estimated
02:15PM 42.2084 -75.9796 35° Northeast  Level Estimated
02:16PM 42.2084 -75.9796 35° Northeast  Level Estimated
02:17PM 42.2084 -75.9796 35° Northeast  Level Estimated
02:18PM 42.2084 -75.9796 35° Northeast  Level Estimated
02:19PM 42.2084 -75.9796 35° Northeast  Level Estimated
02:20PM 42.2084 -75.9796 35° Northeast  Level Estimated
02:21PM 42.2084 -75.9796 35° Northeast  Level Estimated
02:22PM 42.2084 -75.9796 35° Northeast  Level Estimated
02:23PM 42.2084 -75.9796 35° Northeast  Level Estimated
02:24PM 42.2084 -75.9796 35° Northeast  Level Estimated